createdAt,value
2017-09-08T06:55:16.395Z,20704.00
2017-09-08T06:56:16.420Z,20672.00
2017-09-08T06:57:16.444Z,21056.00
2017-09-08T06:58:16.473Z,21312.00
2017-09-08T06:59:16.500Z,21344.00
2017-09-08T07:00:16.526Z,21568.00
2017-09-08T07:01:16.554Z,21056.00
2017-09-08T07:02:16.582Z,21408.00
2017-09-08T07:03:16.607Z,21888.00
2017-09-08T07:04:16.635Z,22336.00
2017-09-08T07:05:16.667Z,23264.00
2017-09-08T07:06:16.690Z,24032.00
2017-09-08T07:07:16.718Z,24352.00
2017-09-08T07:08:16.742Z,24480.00
2017-09-08T07:09:16.772Z,24384.00
2017-09-08T07:10:16.801Z,24576.00
2017-09-08T07:11:16.832Z,24896.00
2017-09-08T07:12:16.860Z,25440.00
2017-09-08T07:13:16.884Z,26016.00
2017-09-08T07:14:16.912Z,26464.00
2017-09-08T07:15:16.941Z,26528.00
2017-09-08T07:16:16.967Z,26304.00
2017-09-08T07:17:16.994Z,27104.00
2017-09-08T07:18:17.024Z,27392.00
2017-09-08T07:19:17.052Z,27168.00
2017-09-08T07:20:17.079Z,27648.00
2017-09-08T07:21:17.109Z,28448.00
2017-09-08T07:22:17.137Z,28736.00
2017-09-08T07:23:17.165Z,27584.00
2017-09-08T07:24:17.196Z,26944.00
2017-09-08T07:25:17.223Z,27360.00
2017-09-08T07:26:17.254Z,28640.00
2017-09-08T07:27:17.288Z,29408.00
2017-09-08T07:28:17.309Z,30784.00
2017-09-08T07:29:17.339Z,30880.00
2017-09-08T07:30:17.393Z,31008.00
2017-09-08T07:31:17.401Z,31104.00
2017-09-08T07:32:17.430Z,31360.00
2017-09-08T07:33:17.458Z,32192.00
2017-09-08T07:34:17.489Z,33120.00
2017-09-08T07:35:17.519Z,33888.00
2017-09-08T07:36:17.547Z,34496.00
2017-09-08T07:37:17.579Z,34080.00
2017-09-08T07:38:17.612Z,33440.00
2017-09-08T07:39:17.640Z,32192.00
2017-09-08T07:40:17.671Z,33504.00
2017-09-08T07:41:17.699Z,34528.00
2017-09-08T07:42:17.729Z,34976.00
2017-09-08T07:43:17.759Z,35584.00
2017-09-08T07:44:17.793Z,35136.00
2017-09-08T07:45:17.821Z,34976.00
2017-09-08T07:46:17.852Z,35840.00
2017-09-08T07:47:17.884Z,35584.00
2017-09-08T07:48:17.924Z,35904.00
2017-09-08T07:49:17.944Z,36288.00
2017-09-08T07:50:17.978Z,36928.00
2017-09-08T07:51:18.009Z,36256.00
2017-09-08T07:52:18.039Z,36032.00
2017-09-08T07:53:18.068Z,35008.00
2017-09-08T07:54:18.102Z,34688.00
2017-09-08T07:55:18.134Z,36000.00
2017-09-08T07:56:18.163Z,37600.00
2017-09-08T07:57:18.196Z,38240.00
2017-09-08T07:58:18.228Z,38272.00
2017-09-08T07:59:18.258Z,38016.00
2017-09-08T08:00:18.292Z,37024.00
2017-09-08T08:01:18.322Z,35520.00
2017-09-08T08:02:18.357Z,37568.00
2017-09-08T08:03:18.387Z,39424.00
2017-09-08T08:04:18.420Z,38720.00
2017-09-08T08:05:18.450Z,39136.00
2017-09-08T08:06:18.483Z,39392.00
2017-09-08T08:07:18.520Z,39680.00
2017-09-08T08:08:18.551Z,40576.00
2017-09-08T08:09:18.583Z,40576.00
2017-09-08T08:10:18.614Z,40064.00
2017-09-08T08:11:18.648Z,41472.00
2017-09-08T08:12:18.682Z,43616.00
2017-09-08T08:13:18.714Z,43168.00
2017-09-08T08:14:18.748Z,42496.00
2017-09-08T08:15:18.780Z,42944.00
2017-09-08T08:16:18.813Z,44128.00
2017-09-08T08:17:18.848Z,45632.00
2017-09-08T08:18:18.882Z,46976.00
2017-09-08T08:19:18.914Z,47936.00
2017-09-08T08:20:18.947Z,46272.00
2017-09-08T08:21:18.981Z,45088.00
2017-09-08T08:22:19.015Z,45984.00
2017-09-08T08:23:19.055Z,46240.00
2017-09-08T08:24:19.083Z,46368.00
2017-09-08T08:25:19.120Z,47904.00
2017-09-08T08:26:19.153Z,48608.00
2017-09-08T08:27:19.188Z,49024.00
2017-09-08T08:28:19.221Z,49664.00
2017-09-08T08:29:19.257Z,48608.00
2017-09-08T08:30:19.290Z,49248.00
2017-09-08T08:31:19.326Z,50336.00
2017-09-08T08:32:19.359Z,50976.00
2017-09-08T08:33:19.391Z,51008.00
2017-09-08T08:34:19.425Z,50336.00
2017-09-08T08:35:19.461Z,51456.00
2017-09-08T08:36:19.496Z,53632.00
2017-09-08T08:37:19.528Z,53120.00
2017-09-08T08:38:19.565Z,53472.00
2017-09-08T08:39:19.598Z,55168.00
2017-09-08T08:40:19.631Z,54880.00
2017-09-08T08:41:19.673Z,56160.00
2017-09-08T08:42:19.707Z,55232.00
2017-09-08T08:43:19.738Z,56224.00
2017-09-08T08:44:19.771Z,57568.00
2017-09-08T08:45:19.807Z,58304.00
2017-09-08T08:46:19.839Z,59104.00
2017-09-08T08:47:19.877Z,56256.00
2017-09-08T08:48:19.907Z,54976.00
2017-09-08T08:49:19.945Z,57984.00
2017-09-08T08:50:19.977Z,62336.00
2017-09-08T08:51:20.013Z,62624.00
2017-09-08T08:52:20.049Z,62272.00
2017-09-08T08:53:20.084Z,60544.00
2017-09-08T08:54:20.118Z,60480.00
2017-09-08T08:55:20.153Z,58720.00
2017-09-08T08:56:20.190Z,58144.00
2017-09-08T08:57:20.223Z,58880.00
2017-09-08T08:58:20.256Z,59712.00
2017-09-08T08:59:20.294Z,60256.00
2017-09-08T09:00:20.327Z,60672.00
2017-09-08T09:01:20.360Z,61856.00
2017-09-08T09:02:20.396Z,63520.00
2017-09-08T09:03:20.432Z,61696.00
2017-09-08T09:04:20.466Z,60640.00
2017-09-08T09:05:20.501Z,61408.00
2017-09-08T09:06:20.538Z,63040.00
2017-09-08T09:07:20.574Z,64064.00
2017-09-08T09:08:20.609Z,64288.00
2017-09-08T09:09:20.644Z,66336.00
2017-09-08T09:10:20.685Z,66048.00
2017-09-08T09:11:20.722Z,65952.00
2017-09-08T09:12:20.750Z,66304.00
2017-09-08T09:13:20.783Z,68896.00
2017-09-08T09:14:20.820Z,70752.00
2017-09-08T09:15:20.857Z,71584.00
2017-09-08T09:16:20.890Z,69984.00
2017-09-08T09:17:20.927Z,68192.00
2017-09-08T09:18:20.962Z,66880.00
2017-09-08T09:19:20.997Z,67456.00
2017-09-08T09:20:21.033Z,69824.00
2017-09-08T09:21:21.069Z,69952.00
2017-09-08T09:22:21.106Z,70432.00
2017-09-08T09:23:21.142Z,70784.00
2017-09-08T09:24:21.178Z,71808.00
2017-09-08T09:25:21.235Z,70144.00
2017-09-08T09:26:21.252Z,71328.00
2017-09-08T09:27:21.285Z,68576.00
2017-09-08T09:28:21.322Z,67264.00
2017-09-08T09:29:21.358Z,66624.00
2017-09-08T09:30:21.397Z,64992.00
2017-09-08T09:31:21.434Z,64512.00
2017-09-08T09:32:21.470Z,68768.00
2017-09-08T09:33:21.505Z,72832.00
2017-09-08T09:34:21.543Z,78272.00
2017-09-08T09:35:21.580Z,80960.00
2017-09-08T09:36:21.618Z,80448.00
2017-09-08T09:37:21.655Z,78016.00
2017-09-08T09:38:21.691Z,76320.00
2017-09-08T09:39:21.730Z,77632.00
2017-09-08T09:40:21.766Z,78176.00
2017-09-08T09:41:21.805Z,77664.00
2017-09-08T09:42:21.842Z,76992.00
2017-09-08T09:43:21.879Z,76064.00
2017-09-08T09:44:21.915Z,76864.00
2017-09-08T09:45:21.953Z,77664.00
2017-09-08T09:46:21.988Z,75456.00
2017-09-08T09:47:22.029Z,76096.00
2017-09-08T09:48:22.065Z,73856.00
2017-09-08T09:49:22.100Z,74048.00
2017-09-08T09:50:22.137Z,74720.00
2017-09-08T09:51:22.177Z,75072.00
2017-09-08T09:52:22.213Z,75456.00
2017-09-08T09:53:22.250Z,75552.00
2017-09-08T09:54:22.287Z,78080.00
2017-09-08T09:55:22.327Z,79232.00
2017-09-08T09:56:22.365Z,77440.00
2017-09-08T09:57:22.401Z,82400.00
2017-09-08T09:58:22.441Z,79424.00
2017-09-08T09:59:22.479Z,83200.00
2017-09-08T10:00:22.515Z,79904.00
2017-09-08T10:01:22.554Z,79936.00
2017-09-08T10:02:22.601Z,82784.00
2017-09-08T10:03:22.631Z,83456.00
2017-09-08T10:04:22.669Z,84512.00
2017-09-08T10:05:22.706Z,82752.00
2017-09-08T10:06:22.745Z,83328.00
2017-09-08T10:07:22.786Z,81664.00
2017-09-08T10:08:22.821Z,80768.00
2017-09-08T10:09:22.861Z,81728.00
2017-09-08T10:10:22.901Z,83008.00
2017-09-08T10:11:22.989Z,85472.00
2017-09-08T10:12:22.975Z,85600.00
2017-09-08T10:13:23.025Z,85600.00
2017-09-08T10:14:23.053Z,86752.00
2017-09-08T10:15:23.101Z,85792.00
2017-09-08T10:16:23.132Z,86432.00
2017-09-08T10:17:23.171Z,81888.00
2017-09-08T10:18:23.210Z,81024.00
2017-09-08T10:19:23.249Z,85568.00
2017-09-08T10:20:23.291Z,86592.00
2017-09-08T10:21:23.331Z,87456.00
2017-09-08T10:22:23.370Z,82592.00
2017-09-08T10:23:23.411Z,80864.00
2017-09-08T10:24:23.450Z,80480.00
2017-09-08T10:25:23.492Z,83872.00
2017-09-08T10:26:23.530Z,85344.00
2017-09-08T10:27:23.570Z,86112.00
2017-09-08T10:28:23.611Z,83040.00
2017-09-08T10:29:23.649Z,86208.00
2017-09-08T10:30:23.687Z,87328.00
2017-09-08T10:31:23.728Z,88128.00
2017-09-08T10:32:23.773Z,84832.00
2017-09-08T10:33:23.815Z,88704.00
2017-09-08T10:34:23.855Z,87488.00
2017-09-08T10:35:23.897Z,86848.00
2017-09-08T10:36:23.929Z,79712.00
2017-09-08T10:37:23.970Z,76512.00
2017-09-08T10:38:24.014Z,77568.00
2017-09-08T10:39:24.055Z,81120.00
2017-09-08T10:40:24.094Z,83552.00
2017-09-08T10:41:24.163Z,84480.00
2017-09-08T10:42:24.178Z,86656.00
2017-09-08T10:43:24.219Z,83776.00
2017-09-08T10:44:24.262Z,85152.00
2017-09-08T10:45:24.303Z,85344.00
2017-09-08T10:46:24.341Z,88640.00
2017-09-08T10:47:24.388Z,86880.00
2017-09-08T10:48:24.427Z,88864.00
2017-09-08T10:49:24.471Z,84736.00
2017-09-08T10:50:24.511Z,87296.00
2017-09-08T10:51:24.552Z,86304.00
2017-09-08T10:52:24.599Z,87328.00
2017-09-08T10:53:24.638Z,86496.00
2017-09-08T10:54:24.678Z,85440.00
2017-09-08T10:55:24.720Z,85152.00
2017-09-08T10:56:24.761Z,83680.00
2017-09-08T10:57:24.804Z,79808.00
2017-09-08T10:58:24.848Z,77120.00
2017-09-08T10:59:24.889Z,76928.00
2017-09-08T11:00:24.930Z,78752.00
2017-09-08T11:01:24.973Z,83648.00
2017-09-08T11:02:25.017Z,85376.00
2017-09-08T11:03:25.061Z,87584.00
2017-09-08T11:04:25.100Z,84960.00
2017-09-08T11:05:25.144Z,82688.00
2017-09-08T11:06:25.189Z,82944.00
2017-09-08T11:07:25.232Z,82432.00
2017-09-08T11:08:25.274Z,86656.00
2017-09-08T11:09:25.314Z,83360.00
2017-09-08T11:10:25.358Z,88928.00
2017-09-08T11:11:25.401Z,91584.00
2017-09-08T11:12:25.445Z,87680.00
2017-09-08T11:13:25.487Z,87168.00
2017-09-08T11:14:25.533Z,88320.00
2017-09-08T11:15:25.576Z,88512.00
2017-09-08T11:16:25.619Z,89504.00
2017-09-08T11:17:25.662Z,89024.00
2017-09-08T11:18:25.704Z,91744.00
2017-09-08T11:19:25.749Z,89216.00
2017-09-08T11:20:25.789Z,91168.00
2017-09-08T11:21:25.838Z,89536.00
2017-09-08T11:22:25.876Z,90112.00
2017-09-08T11:23:25.919Z,90592.00
2017-09-08T11:24:25.962Z,94048.00
2017-09-08T11:25:26.014Z,92608.00
2017-09-08T11:26:26.052Z,91872.00
2017-09-08T11:27:26.093Z,92064.00
2017-09-08T11:28:26.135Z,91296.00
2017-09-08T11:29:26.182Z,94496.00
2017-09-08T11:30:26.226Z,91072.00
2017-09-08T11:31:26.289Z,92064.00
2017-09-08T11:32:26.310Z,90912.00
2017-09-08T11:33:26.357Z,86688.00
2017-09-08T11:34:26.415Z,92352.00
2017-09-08T11:35:26.443Z,91840.00
2017-09-08T11:36:26.489Z,88480.00
2017-09-08T11:37:26.533Z,88064.00
2017-09-08T11:38:26.577Z,88000.00
2017-09-08T11:39:26.620Z,88768.00
2017-09-08T11:40:26.663Z,88640.00
2017-09-08T11:41:26.708Z,88768.00
2017-09-08T11:42:26.759Z,89024.00
2017-09-08T11:43:26.799Z,90432.00
2017-09-08T11:44:26.843Z,90944.00
2017-09-08T11:45:26.894Z,90336.00
2017-09-08T11:46:26.933Z,91968.00
2017-09-08T11:47:26.975Z,88928.00
2017-09-08T11:48:27.022Z,87936.00
2017-09-08T11:49:27.064Z,91520.00
2017-09-08T11:50:27.112Z,88352.00
2017-09-08T11:51:27.157Z,89856.00
2017-09-08T11:52:27.199Z,87136.00
2017-09-08T11:53:27.242Z,86688.00
2017-09-08T11:54:27.289Z,83328.00
2017-09-08T11:55:27.335Z,81408.00
2017-09-08T11:56:27.375Z,78496.00
2017-09-08T11:57:27.421Z,78784.00
2017-09-08T11:58:27.467Z,81088.00
2017-09-08T11:59:27.509Z,84032.00
2017-09-08T12:00:27.554Z,88288.00
2017-09-08T12:01:27.598Z,92640.00
2017-09-08T12:02:27.641Z,95840.00
2017-09-08T12:03:27.684Z,96544.00
2017-09-08T12:04:27.727Z,99008.00
2017-09-08T12:05:27.770Z,93664.00
2017-09-08T12:06:27.815Z,91936.00
2017-09-08T12:07:27.859Z,91072.00
2017-09-08T12:08:27.901Z,89504.00
2017-09-08T12:09:27.941Z,93280.00
2017-09-08T12:10:27.984Z,89344.00
2017-09-08T12:11:28.027Z,85792.00
2017-09-08T12:12:28.081Z,82880.00
2017-09-08T12:13:28.114Z,79392.00
2017-09-08T12:14:28.155Z,80768.00
2017-09-08T12:15:28.200Z,80704.00
2017-09-08T12:16:28.240Z,79808.00
2017-09-08T12:17:28.283Z,79840.00
2017-09-08T12:18:28.327Z,78400.00
2017-09-08T12:19:28.369Z,82368.00
2017-09-08T12:20:28.410Z,83744.00
2017-09-08T12:21:28.453Z,84288.00
2017-09-08T12:22:28.495Z,83520.00
2017-09-08T12:23:28.540Z,84672.00
2017-09-08T12:24:28.578Z,83584.00
2017-09-08T12:25:28.618Z,81312.00
2017-09-08T12:26:28.666Z,82400.00
2017-09-08T12:27:28.703Z,80288.00
2017-09-08T12:28:28.744Z,80736.00
2017-09-08T12:29:28.786Z,82112.00
2017-09-08T12:30:28.825Z,80448.00
2017-09-08T12:31:28.867Z,78112.00
2017-09-08T12:32:28.907Z,72768.00
2017-09-08T12:33:28.953Z,75360.00
2017-09-08T12:34:28.991Z,78912.00
2017-09-08T12:35:29.032Z,78112.00
2017-09-08T12:36:29.072Z,82528.00
2017-09-08T12:37:29.116Z,84896.00
2017-09-08T12:38:29.158Z,86368.00
2017-09-08T12:39:29.195Z,86176.00
2017-09-08T12:40:29.252Z,85440.00
2017-09-08T12:41:29.301Z,86496.00
2017-09-08T12:42:29.317Z,87200.00
2017-09-08T12:43:29.360Z,87008.00
2017-09-08T12:44:29.397Z,82144.00
2017-09-08T12:45:29.439Z,84512.00
2017-09-08T12:46:29.481Z,84000.00
2017-09-08T12:47:29.520Z,83456.00
2017-09-08T12:48:29.561Z,81632.00
2017-09-08T12:49:29.600Z,84224.00
2017-09-08T12:50:29.642Z,86976.00
2017-09-08T12:51:29.680Z,87872.00
2017-09-08T12:52:29.719Z,91744.00
2017-09-08T12:53:29.759Z,94336.00
2017-09-08T12:54:29.800Z,96640.00
2017-09-08T12:55:29.840Z,96192.00
2017-09-08T12:56:29.880Z,94400.00
2017-09-08T12:57:29.921Z,92576.00
2017-09-08T12:58:29.963Z,92512.00
2017-09-08T12:59:30.003Z,91328.00
2017-09-08T13:00:30.044Z,90240.00
2017-09-08T13:01:30.082Z,91968.00
2017-09-08T13:02:30.122Z,92640.00
2017-09-08T13:03:30.165Z,91648.00
2017-09-08T13:04:30.205Z,89952.00
2017-09-08T13:05:30.246Z,87488.00
2017-09-08T13:06:30.283Z,87264.00
2017-09-08T13:07:30.333Z,87040.00
2017-09-08T13:08:30.363Z,83616.00
2017-09-08T13:09:30.403Z,87424.00
2017-09-08T13:10:30.443Z,84992.00
2017-09-08T13:11:30.485Z,88736.00
2017-09-08T13:12:30.522Z,89536.00
2017-09-08T13:13:30.564Z,90560.00
2017-09-08T13:14:30.604Z,88512.00
2017-09-08T13:15:30.677Z,86848.00
2017-09-08T13:16:30.678Z,85504.00
2017-09-08T13:17:30.721Z,80224.00
2017-09-08T13:18:30.757Z,76384.00
2017-09-08T13:19:30.798Z,63232.00
2017-09-08T13:20:30.839Z,63584.00
2017-09-08T13:21:30.908Z,64672.00
2017-09-08T13:22:30.916Z,66656.00
2017-09-08T13:23:30.954Z,65856.00
2017-09-08T13:24:30.990Z,63104.00
2017-09-08T13:25:31.028Z,60416.00
2017-09-08T13:26:31.071Z,57376.00
2017-09-08T13:27:31.103Z,51040.00
2017-09-08T13:28:31.142Z,58976.00
2017-09-08T13:29:31.178Z,61376.00
2017-09-08T13:30:31.218Z,65024.00
2017-09-08T13:31:31.256Z,66144.00
2017-09-08T13:32:31.289Z,68832.00
2017-09-08T13:33:31.328Z,70080.00
2017-09-08T13:34:31.365Z,68864.00
2017-09-08T13:35:31.400Z,70688.00
2017-09-08T13:36:31.438Z,71648.00
2017-09-08T13:37:31.473Z,64448.00
2017-09-08T13:38:31.510Z,63296.00
2017-09-08T13:39:31.546Z,60928.00
2017-09-08T13:40:31.584Z,63232.00
2017-09-08T13:41:31.620Z,44896.00
2017-09-08T13:42:31.654Z,57376.00
2017-09-08T13:43:31.691Z,69344.00
2017-09-08T13:44:31.729Z,74112.00
2017-09-08T13:45:31.764Z,66016.00
2017-09-08T13:46:31.800Z,73504.00
2017-09-08T13:47:31.837Z,65120.00
2017-09-08T13:48:31.869Z,64256.00
2017-09-08T13:49:31.908Z,59808.00
2017-09-08T13:50:31.947Z,72384.00
2017-09-08T13:51:31.978Z,71488.00
2017-09-08T13:52:32.012Z,67456.00
2017-09-08T13:53:32.049Z,69984.00
2017-09-08T13:54:32.087Z,63072.00
2017-09-08T13:55:32.123Z,77152.00
2017-09-08T13:56:32.158Z,78720.00
2017-09-08T13:57:32.194Z,79712.00
2017-09-08T13:58:32.230Z,75712.00
2017-09-08T13:59:32.266Z,73440.00
2017-09-08T14:00:32.299Z,72128.00
2017-09-08T14:01:32.338Z,73984.00
2017-09-08T14:02:32.374Z,73376.00
2017-09-08T14:03:32.409Z,74112.00
2017-09-08T14:04:32.445Z,73600.00
2017-09-08T14:05:32.485Z,70976.00
2017-09-08T14:06:32.518Z,69376.00
2017-09-08T14:07:32.556Z,68128.00
2017-09-08T14:08:32.591Z,67008.00
2017-09-08T14:09:32.631Z,64960.00
2017-09-08T14:10:32.667Z,64672.00
2017-09-08T14:11:32.704Z,65024.00
2017-09-08T14:12:32.739Z,64480.00
2017-09-08T14:13:32.775Z,64576.00
2017-09-08T14:14:32.814Z,64640.00
2017-09-08T14:15:32.850Z,63040.00
2017-09-08T14:16:32.886Z,62144.00
2017-09-08T14:17:32.921Z,61568.00
2017-09-08T14:18:32.961Z,60256.00
2017-09-08T14:19:32.998Z,58272.00
2017-09-08T14:20:33.031Z,58208.00
2017-09-08T14:21:33.071Z,58048.00
2017-09-08T14:22:33.106Z,56608.00
2017-09-08T14:23:33.143Z,57504.00
2017-09-08T14:24:33.176Z,56672.00
2017-09-08T14:25:33.213Z,55296.00
2017-09-08T14:26:33.253Z,54976.00
2017-09-08T14:27:33.288Z,54208.00
2017-09-08T14:28:33.322Z,52128.00
2017-09-08T14:29:33.359Z,51840.00
2017-09-08T14:30:33.395Z,53728.00
2017-09-08T14:31:33.433Z,53696.00
2017-09-08T14:32:33.469Z,53920.00
2017-09-08T14:33:33.503Z,53760.00
2017-09-08T14:34:33.541Z,52736.00
2017-09-08T14:35:33.577Z,52224.00
2017-09-08T14:36:33.613Z,52032.00
2017-09-08T14:37:33.646Z,52192.00
2017-09-08T14:38:33.682Z,52192.00
2017-09-08T14:39:33.722Z,52384.00
2017-09-08T14:40:33.754Z,52320.00
2017-09-08T14:41:33.789Z,51616.00
2017-09-08T14:42:33.826Z,50720.00
2017-09-08T14:43:33.860Z,51200.00
2017-09-08T14:44:33.896Z,51072.00
2017-09-08T14:45:33.932Z,49152.00
2017-09-08T14:46:33.965Z,49120.00
2017-09-08T14:47:34.004Z,48992.00
2017-09-08T14:48:34.036Z,49248.00
2017-09-08T14:49:34.078Z,50240.00
2017-09-08T14:50:34.107Z,49344.00
2017-09-08T14:51:34.145Z,49024.00
2017-09-08T14:52:34.176Z,50080.00
2017-09-08T14:53:34.213Z,51168.00
2017-09-08T14:54:34.248Z,51136.00
2017-09-08T14:55:34.281Z,48352.00
2017-09-08T14:56:34.315Z,44992.00
2017-09-08T14:57:34.350Z,45952.00
2017-09-08T14:58:34.385Z,47136.00
2017-09-08T14:59:34.420Z,46400.00
2017-09-08T15:00:34.452Z,46336.00
2017-09-08T15:01:34.488Z,46720.00
2017-09-08T15:02:34.522Z,48224.00
2017-09-08T15:03:34.557Z,47680.00
2017-09-08T15:04:34.592Z,47136.00
2017-09-08T15:05:34.625Z,46848.00
2017-09-08T15:06:34.660Z,45024.00
2017-09-08T15:07:34.696Z,45536.00
2017-09-08T15:08:34.728Z,43968.00
2017-09-08T15:09:34.761Z,44416.00
2017-09-08T15:10:34.795Z,45536.00
2017-09-08T15:11:34.832Z,43552.00
2017-09-08T15:12:34.864Z,42464.00
2017-09-08T15:13:34.896Z,44256.00
2017-09-08T15:14:34.932Z,42368.00
2017-09-08T15:15:34.964Z,40800.00
2017-09-08T15:16:34.997Z,37664.00
2017-09-08T15:17:35.044Z,42432.00
2017-09-08T15:18:35.067Z,31328.00
2017-09-08T15:19:35.099Z,31200.00
2017-09-08T15:20:35.133Z,44288.00
2017-09-08T15:21:35.167Z,41696.00
2017-09-08T15:22:35.200Z,39840.00
2017-09-08T15:23:35.234Z,40224.00
2017-09-08T15:24:35.266Z,35488.00
2017-09-08T15:25:35.301Z,38144.00
2017-09-08T15:26:35.333Z,37472.00
2017-09-08T15:27:35.367Z,22816.00
2017-09-08T15:28:35.397Z,20512.00
2017-09-08T15:29:35.431Z,35488.00
2017-09-08T15:30:35.464Z,35808.00
2017-09-08T15:31:35.500Z,36128.00
2017-09-08T15:32:35.532Z,21440.00
2017-09-08T15:33:35.564Z,26080.00
2017-09-08T15:34:35.598Z,34240.00
2017-09-08T15:35:35.628Z,32928.00
2017-09-08T15:36:35.660Z,34208.00
2017-09-08T15:37:35.693Z,34208.00
2017-09-08T15:38:35.732Z,33056.00
2017-09-08T15:39:35.758Z,31776.00
2017-09-08T15:40:35.792Z,30816.00
2017-09-08T15:41:35.823Z,32288.00
2017-09-08T15:42:35.854Z,34880.00
2017-09-08T15:43:35.886Z,35136.00
2017-09-08T15:44:35.918Z,31904.00
2017-09-08T15:45:35.949Z,30848.00
2017-09-08T15:46:35.984Z,29952.00
2017-09-08T15:47:36.014Z,29632.00
2017-09-08T15:48:36.046Z,28192.00
2017-09-08T15:49:36.078Z,26688.00
2017-09-08T15:50:36.111Z,25632.00
2017-09-08T15:51:36.143Z,24160.00
2017-09-08T15:52:36.173Z,24256.00
2017-09-08T15:53:36.203Z,26400.00
2017-09-08T15:54:36.234Z,26336.00
2017-09-08T15:55:36.271Z,25408.00
2017-09-08T15:56:36.299Z,23328.00
2017-09-08T15:57:36.332Z,21088.00
2017-09-08T15:58:36.359Z,21280.00
2017-09-08T15:59:36.392Z,21216.00
2017-09-08T16:00:36.421Z,20416.00
2017-09-08T16:01:36.459Z,19712.00
2017-09-08T16:02:36.489Z,20032.00
2017-09-08T16:03:36.518Z,19904.00
2017-09-08T16:04:36.548Z,19296.00
2017-09-08T16:05:36.577Z,17408.00
2017-09-08T16:06:36.610Z,16640.00
2017-09-08T16:07:36.638Z,15616.00
2017-09-08T16:08:36.671Z,14960.00
2017-09-08T16:09:36.699Z,14224.00
2017-09-08T16:10:36.730Z,13824.00
2017-09-08T16:11:36.764Z,15136.00
2017-09-08T16:12:36.791Z,16928.00
2017-09-08T16:13:36.821Z,16288.00
2017-09-08T16:14:36.854Z,14560.00
2017-09-08T16:15:36.884Z,13408.00
2017-09-08T16:16:36.945Z,14720.00
2017-09-08T16:17:36.950Z,14252.00
2017-09-08T16:18:36.973Z,13904.00
2017-09-08T16:19:37.005Z,12440.00
2017-09-08T16:20:37.034Z,11168.00
2017-09-08T16:21:37.064Z,11652.00
2017-09-08T16:22:37.092Z,12980.00
2017-09-08T16:23:37.124Z,13288.00
2017-09-08T16:24:37.153Z,13304.00
2017-09-08T16:25:37.190Z,13280.00
2017-09-08T16:26:37.211Z,13440.00
2017-09-08T16:27:37.241Z,13916.00
2017-09-08T16:28:37.271Z,14592.00
2017-09-08T16:29:37.301Z,14304.00
2017-09-08T16:30:37.331Z,13512.00
2017-09-08T16:31:37.358Z,12432.00
2017-09-08T16:32:37.389Z,11504.00
2017-09-08T16:33:37.418Z,11124.00
2017-09-08T16:34:37.445Z,10532.00
2017-09-08T16:35:37.476Z,9768.00
2017-09-08T16:36:37.503Z,10596.00
2017-09-08T16:37:37.535Z,10100.00
2017-09-08T16:38:37.565Z,9244.00
2017-09-08T16:39:37.591Z,8648.00
2017-09-08T16:40:37.620Z,8532.00
2017-09-08T16:41:37.648Z,8724.00
2017-09-08T16:42:37.679Z,8416.00
2017-09-08T16:43:37.707Z,7632.00
2017-09-08T16:44:37.738Z,7112.00
2017-09-08T16:45:37.764Z,6856.00
2017-09-08T16:46:37.796Z,6684.00
2017-09-08T16:47:37.822Z,6580.00
2017-09-08T16:48:37.852Z,6344.00
2017-09-08T16:49:37.881Z,6212.00
2017-09-08T16:50:37.910Z,6096.00
2017-09-08T16:51:37.964Z,5968.00
2017-09-08T16:52:37.964Z,5820.00
2017-09-08T16:53:37.995Z,5668.00
2017-09-08T16:54:38.023Z,5488.00
2017-09-08T16:55:38.052Z,5292.00
2017-09-08T16:56:38.078Z,5136.00
2017-09-08T16:57:38.108Z,5032.00
2017-09-08T16:58:38.135Z,4900.00
2017-09-08T16:59:38.161Z,4780.00
2017-09-08T17:00:38.191Z,4644.00
2017-09-08T17:01:38.217Z,4492.00
2017-09-08T17:02:38.246Z,4312.00
2017-09-08T17:03:38.275Z,4112.00
2017-09-08T17:04:38.302Z,3916.00
2017-09-08T17:05:38.327Z,3724.00
2017-09-08T17:06:38.357Z,3512.00
2017-09-08T17:07:38.385Z,3304.00
2017-09-08T17:08:38.410Z,3096.00
2017-09-08T17:09:38.438Z,2896.00
2017-09-08T17:10:38.464Z,2696.00
2017-09-08T17:11:38.494Z,2508.00
2017-09-08T17:12:38.521Z,2368.00
2017-09-08T17:13:38.548Z,2240.00
2017-09-08T17:14:38.574Z,2088.00
2017-09-08T17:15:38.599Z,1948.00
2017-09-08T17:16:38.628Z,1812.00
2017-09-08T17:17:38.654Z,1688.00
2017-09-08T17:18:38.680Z,1596.00
2017-09-08T17:19:38.710Z,1516.00
2017-09-08T17:20:38.737Z,1452.00
2017-09-08T17:21:38.761Z,1388.00
2017-09-08T17:22:38.790Z,1316.00
2017-09-08T17:23:38.816Z,1260.00
2017-09-08T17:24:38.848Z,1196.00
2017-09-08T17:25:38.867Z,1120.00
2017-09-08T17:26:38.897Z,1040.00
2017-09-08T17:27:38.927Z,960.00
2017-09-08T17:28:38.949Z,888.00
2017-09-08T17:29:38.973Z,820.00
2017-09-08T17:30:39.002Z,760.00
2017-09-08T17:31:39.034Z,700.00
2017-09-08T17:32:39.055Z,648.00
2017-09-08T17:33:39.078Z,600.00
2017-09-08T17:34:39.105Z,556.00
2017-09-08T17:35:39.133Z,512.00
2017-09-08T17:36:39.157Z,472.00
2017-09-08T17:37:39.186Z,436.00
2017-09-08T17:38:39.214Z,400.00
2017-09-08T17:39:39.238Z,364.00
2017-09-08T17:40:39.261Z,336.00
2017-09-08T17:41:39.287Z,304.00
2017-09-08T17:42:39.313Z,280.00
2017-09-08T17:43:39.342Z,256.00
2017-09-08T17:44:39.364Z,232.00
2017-09-08T17:45:39.389Z,208.00
2017-09-08T17:46:39.418Z,188.00
2017-09-08T17:47:39.442Z,168.00
2017-09-08T17:48:39.468Z,148.00
2017-09-08T17:49:39.493Z,132.00
2017-09-08T17:50:39.521Z,112.00
2017-09-08T17:51:39.544Z,100.00
2017-09-08T17:52:39.570Z,84.00
2017-09-08T17:53:39.594Z,72.00
2017-09-08T17:54:39.621Z,64.00
2017-09-08T17:55:39.648Z,52.00
2017-09-08T17:56:39.670Z,44.00
2017-09-08T17:57:39.696Z,36.00
2017-09-08T17:58:39.724Z,32.00
2017-09-08T17:59:39.748Z,24.00
2017-09-08T18:00:39.773Z,20.00
2017-09-08T18:01:39.797Z,20.00
2017-09-08T18:02:39.823Z,16.00
2017-09-08T18:03:39.848Z,12.00
2017-09-08T18:04:39.872Z,12.00
2017-09-08T18:05:39.899Z,12.00
2017-09-08T18:06:39.926Z,8.00
2017-09-08T18:07:39.951Z,8.00
2017-09-08T18:08:39.975Z,4.00
2017-09-08T18:09:40.001Z,4.00
2017-09-08T18:10:40.024Z,0.00
2017-09-08T18:11:40.049Z,4.00
2017-09-08T18:12:40.077Z,4.00
2017-09-08T18:13:40.100Z,0.00
2017-09-08T18:14:40.124Z,0.00
2017-09-08T18:15:40.154Z,0.00
2017-09-08T18:16:40.176Z,0.00
2017-09-08T18:17:40.201Z,0.00
2017-09-08T18:18:40.224Z,0.00
2017-09-08T18:19:40.251Z,0.00
2017-09-08T18:20:40.274Z,0.00
2017-09-08T18:21:40.298Z,0.00
2017-09-08T18:22:40.323Z,0.00
2017-09-08T18:23:40.355Z,0.00
2017-09-08T18:24:40.380Z,0.00
2017-09-08T18:25:40.401Z,0.00
2017-09-08T18:26:40.425Z,0.00
2017-09-08T18:27:40.448Z,0.00
2017-09-08T18:28:40.473Z,0.00
2017-09-08T18:29:40.501Z,0.00
2017-09-08T18:30:40.523Z,0.00
2017-09-08T18:31:40.548Z,0.00
2017-09-08T18:32:40.575Z,0.00
2017-09-08T18:33:40.600Z,0.00
2017-09-08T18:34:40.626Z,0.00
2017-09-08T18:35:40.648Z,0.00
2017-09-08T18:36:40.674Z,0.00
2017-09-08T18:37:40.696Z,0.00
2017-09-08T18:38:40.725Z,0.00
2017-09-08T18:39:40.776Z,0.00
2017-09-08T18:40:40.774Z,0.00
2017-09-08T18:41:40.798Z,0.00
2017-09-08T18:42:40.822Z,0.00
2017-09-08T18:43:40.847Z,0.00
2017-09-08T18:44:40.871Z,0.00
2017-09-08T18:45:40.898Z,0.00
2017-09-08T18:46:40.923Z,0.00
2017-09-08T18:47:40.949Z,0.00
2017-09-08T18:48:40.972Z,0.00